sensor_id;sensor_type;location;lat;lon;timestamp;P1;durP1;ratioP1;P2;durP2;ratioP2
3613;SDS011;1821;50.936;6.854;2023-07-02T00:00:21;5.70;;;3.40;;
3613;SDS011;1821;50.936;6.854;2023-07-02T00:01:04;6.05;;;3.60;;
3613;SDS011;1821;50.936;6.854;2023-07-02T00:01:46;5.47;;;3.80;;
3613;SDS011;1821;50.936;6.854;2023-07-02T00:02:29;6.82;;;3.95;;
3613;SDS011;1821;50.936;6.854;2023-07-02T00:03:11;8.70;;;3.90;;
3613;SDS011;1821;50.936;6.854;2023-07-02T00:03:54;5.78;;;3.70;;
3613;SDS011;1821;50.936;6.854;2023-07-02T00:04:36;5.38;;;3.30;;
3613;SDS011;1821;50.936;6.854;2023-07-02T00:05:18;6.50;;;3.75;;
3613;SDS011;1821;50.936;6.854;2023-07-02T00:06:00;6.43;;;3.47;;
3613;SDS011;1821;50.936;6.854;2023-07-02T00:06:46;7.60;;;3.75;;
3613;SDS011;1821;50.936;6.854;2023-07-02T00:07:28;5.55;;;3.42;;
3613;SDS011;1821;50.936;6.854;2023-07-02T00:08:10;7.45;;;4.22;;
3613;SDS011;1821;50.936;6.854;2023-07-02T00:08:53;6.22;;;4.35;;
3613;SDS011;1821;50.936;6.854;2023-07-02T00:09:35;6.38;;;3.83;;
3613;SDS011;1821;50.936;6.854;2023-07-02T00:10:17;6.67;;;4.00;;
3613;SDS011;1821;50.936;6.854;2023-07-02T00:11:02;5.20;;;3.40;;
3613;SDS011;1821;50.936;6.854;2023-07-02T00:11:45;5.47;;;3.25;;
3613;SDS011;1821;50.936;6.854;2023-07-02T00:12:27;6.35;;;3.50;;
3613;SDS011;1821;50.936;6.854;2023-07-02T00:13:12;7.15;;;3.67;;
3613;SDS011;1821;50.936;6.854;2023-07-02T00:13:54;5.22;;;3.70;;
3613;SDS011;1821;50.936;6.854;2023-07-02T00:14:37;5.47;;;3.50;;
3613;SDS011;1821;50.936;6.854;2023-07-02T00:15:19;4.70;;;3.50;;
3613;SDS011;1821;50.936;6.854;2023-07-02T00:16:01;5.85;;;3.63;;
3613;SDS011;1821;50.936;6.854;2023-07-02T00:16:45;6.70;;;3.70;;
3613;SDS011;1821;50.936;6.854;2023-07-02T00:17:27;8.73;;;4.07;;
3613;SDS011;1821;50.936;6.854;2023-07-02T00:18:13;8.82;;;4.10;;
3613;SDS011;1821;50.936;6.854;2023-07-02T00:18:57;8.57;;;4.10;;
3613;SDS011;1821;50.936;6.854;2023-07-02T00:19:41;8.43;;;4.10;;
3613;SDS011;1821;50.936;6.854;2023-07-02T00:20:23;8.50;;;4.63;;
3613;SDS011;1821;50.936;6.854;2023-07-02T00:21:05;8.52;;;4.80;;
3613;SDS011;1821;50.936;6.854;2023-07-02T00:21:50;8.40;;;4.38;;
3613;SDS011;1821;50.936;6.854;2023-07-02T00:22:34;7.28;;;4.32;;
3613;SDS011;1821;50.936;6.854;2023-07-02T00:23:17;6.88;;;4.00;;
3613;SDS011;1821;50.936;6.854;2023-07-02T00:24:01;7.47;;;3.75;;
3613;SDS011;1821;50.936;6.854;2023-07-02T00:24:43;6.80;;;3.80;;
3613;SDS011;1821;50.936;6.854;2023-07-02T00:25:25;7.50;;;3.90;;
3613;SDS011;1821;50.936;6.854;2023-07-02T00:26:10;5.93;;;3.63;;
3613;SDS011;1821;50.936;6.854;2023-07-02T00:26:52;6.60;;;4.20;;
3613;SDS011;1821;50.936;6.854;2023-07-02T00:27:37;8.00;;;4.15;;
3613;SDS011;1821;50.936;6.854;2023-07-02T00:28:19;7.85;;;3.80;;
3613;SDS011;1821;50.936;6.854;2023-07-02T00:29:02;7.40;;;4.50;;
3613;SDS011;1821;50.936;6.854;2023-07-02T00:29:45;6.80;;;4.13;;
3613;SDS011;1821;50.936;6.854;2023-07-02T00:30:27;6.47;;;4.57;;
3613;SDS011;1821;50.936;6.854;2023-07-02T00:31:10;8.13;;;4.68;;
3613;SDS011;1821;50.936;6.854;2023-07-02T00:31:52;10.65;;;4.28;;
3613;SDS011;1821;50.936;6.854;2023-07-02T00:32:34;9.40;;;4.50;;
3613;SDS011;1821;50.936;6.854;2023-07-02T00:33:17;7.40;;;4.30;;
3613;SDS011;1821;50.936;6.854;2023-07-02T00:33:59;9.23;;;4.40;;
3613;SDS011;1821;50.936;6.854;2023-07-02T00:34:52;8.60;;;4.20;;
3613;SDS011;1821;50.936;6.854;2023-07-02T00:35:35;10.52;;;4.60;;
3613;SDS011;1821;50.936;6.854;2023-07-02T00:36:17;11.73;;;4.40;;
3613;SDS011;1821;50.936;6.854;2023-07-02T00:36:59;9.13;;;4.60;;
3613;SDS011;1821;50.936;6.854;2023-07-02T00:37:42;7.75;;;4.03;;
3613;SDS011;1821;50.936;6.854;2023-07-02T00:38:24;5.75;;;3.70;;
3613;SDS011;1821;50.936;6.854;2023-07-02T00:39:07;6.32;;;3.92;;
3613;SDS011;1821;50.936;6.854;2023-07-02T00:39:49;7.72;;;4.00;;
3613;SDS011;1821;50.936;6.854;2023-07-02T00:40:31;6.43;;;3.92;;
3613;SDS011;1821;50.936;6.854;2023-07-02T00:41:14;6.63;;;4.18;;
3613;SDS011;1821;50.936;6.854;2023-07-02T00:42:02;7.03;;;3.85;;
3613;SDS011;1821;50.936;6.854;2023-07-02T00:42:45;11.50;;;4.40;;
3613;SDS011;1821;50.936;6.854;2023-07-02T00:43:28;9.45;;;4.10;;
3613;SDS011;1821;50.936;6.854;2023-07-02T00:44:12;9.45;;;4.18;;
3613;SDS011;1821;50.936;6.854;2023-07-02T00:44:54;9.60;;;4.32;;
3613;SDS011;1821;50.936;6.854;2023-07-02T00:45:38;8.23;;;4.70;;
3613;SDS011;1821;50.936;6.854;2023-07-02T00:46:22;5.55;;;4.03;;
3613;SDS011;1821;50.936;6.854;2023-07-02T00:47:07;8.00;;;4.10;;
3613;SDS011;1821;50.936;6.854;2023-07-02T00:47:49;8.15;;;4.10;;
3613;SDS011;1821;50.936;6.854;2023-07-02T00:48:32;9.82;;;3.85;;
3613;SDS011;1821;50.936;6.854;2023-07-02T00:49:14;11.05;;;4.10;;
3613;SDS011;1821;50.936;6.854;2023-07-02T00:49:57;10.20;;;4.30;;
3613;SDS011;1821;50.936;6.854;2023-07-02T00:50:39;9.00;;;4.93;;
3613;SDS011;1821;50.936;6.854;2023-07-02T00:51:23;7.80;;;4.90;;
3613;SDS011;1821;50.936;6.854;2023-07-02T00:52:06;6.63;;;4.28;;
3613;SDS011;1821;50.936;6.854;2023-07-02T00:52:50;7.00;;;4.00;;
3613;SDS011;1821;50.936;6.854;2023-07-02T00:53:35;8.63;;;4.03;;
3613;SDS011;1821;50.936;6.854;2023-07-02T00:54:17;7.20;;;4.40;;
3613;SDS011;1821;50.936;6.854;2023-07-02T00:54:59;6.47;;;4.28;;
3613;SDS011;1821;50.936;6.854;2023-07-02T00:55:41;6.03;;;3.78;;
3613;SDS011;1821;50.936;6.854;2023-07-02T00:56:24;7.55;;;4.43;;
3613;SDS011;1821;50.936;6.854;2023-07-02T00:57:07;9.70;;;4.40;;
3613;SDS011;1821;50.936;6.854;2023-07-02T00:57:49;8.40;;;3.80;;
3613;SDS011;1821;50.936;6.854;2023-07-02T00:58:32;8.85;;;4.10;;
3613;SDS011;1821;50.936;6.854;2023-07-02T00:59:15;7.18;;;3.75;;
3613;SDS011;1821;50.936;6.854;2023-07-02T00:59:58;7.90;;;3.40;;
3613;SDS011;1821;50.936;6.854;2023-07-02T01:00:44;8.52;;;4.25;;
3613;SDS011;1821;50.936;6.854;2023-07-02T01:01:27;8.88;;;4.40;;
3613;SDS011;1821;50.936;6.854;2023-07-02T01:02:10;8.90;;;4.30;;
3613;SDS011;1821;50.936;6.854;2023-07-02T01:02:54;7.05;;;4.32;;
3613;SDS011;1821;50.936;6.854;2023-07-02T01:04:56;9.15;;;4.75;;
3613;SDS011;1821;50.936;6.854;2023-07-02T01:05:41;8.60;;;4.07;;
3613;SDS011;1821;50.936;6.854;2023-07-02T01:06:26;10.40;;;4.60;;
3613;SDS011;1821;50.936;6.854;2023-07-02T01:07:09;9.38;;;4.50;;
3613;SDS011;1821;50.936;6.854;2023-07-02T01:07:54;7.75;;;4.22;;
3613;SDS011;1821;50.936;6.854;2023-07-02T01:08:36;8.00;;;4.55;;
3613;SDS011;1821;50.936;6.854;2023-07-02T01:09:19;11.18;;;4.80;;
3613;SDS011;1821;50.936;6.854;2023-07-02T01:10:01;9.95;;;5.25;;
3613;SDS011;1821;50.936;6.854;2023-07-02T01:10:43;10.75;;;4.68;;
3613;SDS011;1821;50.936;6.854;2023-07-02T01:12:23;8.48;;;4.55;;
3613;SDS011;1821;50.936;6.854;2023-07-02T01:13:09;10.43;;;4.30;;
3613;SDS011;1821;50.936;6.854;2023-07-02T01:13:53;10.18;;;4.60;;
3613;SDS011;1821;50.936;6.854;2023-07-02T01:14:40;7.20;;;4.32;;
3613;SDS011;1821;50.936;6.854;2023-07-02T01:15:23;7.70;;;5.10;;
3613;SDS011;1821;50.936;6.854;2023-07-02T01:16:05;11.35;;;5.22;;
3613;SDS011;1821;50.936;6.854;2023-07-02T01:16:48;8.98;;;4.70;;
3613;SDS011;1821;50.936;6.854;2023-07-02T01:17:32;9.43;;;5.30;;
3613;SDS011;1821;50.936;6.854;2023-07-02T01:18:24;8.75;;;5.30;;
3613;SDS011;1821;50.936;6.854;2023-07-02T01:19:11;12.05;;;5.60;;
3613;SDS011;1821;50.936;6.854;2023-07-02T01:19:54;8.60;;;5.38;;
3613;SDS011;1821;50.936;6.854;2023-07-02T01:20:42;11.20;;;5.10;;
3613;SDS011;1821;50.936;6.854;2023-07-02T01:21:25;11.50;;;5.40;;
3613;SDS011;1821;50.936;6.854;2023-07-02T01:22:08;9.57;;;5.35;;
3613;SDS011;1821;50.936;6.854;2023-07-02T01:22:51;9.95;;;5.22;;
3613;SDS011;1821;50.936;6.854;2023-07-02T01:23:33;12.35;;;5.60;;
3613;SDS011;1821;50.936;6.854;2023-07-02T01:24:16;12.45;;;5.82;;
3613;SDS011;1821;50.936;6.854;2023-07-02T01:24:59;11.20;;;5.90;;
3613;SDS011;1821;50.936;6.854;2023-07-02T01:25:41;11.82;;;6.03;;
3613;SDS011;1821;50.936;6.854;2023-07-02T01:26:32;14.75;;;7.15;;
3613;SDS011;1821;50.936;6.854;2023-07-02T01:27:18;13.77;;;6.30;;
3613;SDS011;1821;50.936;6.854;2023-07-02T01:28:01;10.93;;;6.15;;
3613;SDS011;1821;50.936;6.854;2023-07-02T01:28:43;10.00;;;5.82;;
3613;SDS011;1821;50.936;6.854;2023-07-02T01:29:25;10.35;;;5.80;;
3613;SDS011;1821;50.936;6.854;2023-07-02T01:30:08;11.30;;;6.00;;
3613;SDS011;1821;50.936;6.854;2023-07-02T01:30:51;14.75;;;6.85;;
3613;SDS011;1821;50.936;6.854;2023-07-02T01:31:33;11.05;;;6.05;;
3613;SDS011;1821;50.936;6.854;2023-07-02T01:32:16;9.18;;;5.72;;
3613;SDS011;1821;50.936;6.854;2023-07-02T01:32:58;8.98;;;5.72;;
3613;SDS011;1821;50.936;6.854;2023-07-02T01:33:41;11.45;;;5.90;;
3613;SDS011;1821;50.936;6.854;2023-07-02T01:34:23;12.98;;;6.88;;
3613;SDS011;1821;50.936;6.854;2023-07-02T01:35:05;10.73;;;6.63;;
3613;SDS011;1821;50.936;6.854;2023-07-02T01:35:48;10.45;;;6.65;;
3613;SDS011;1821;50.936;6.854;2023-07-02T01:36:30;10.32;;;7.22;;
3613;SDS011;1821;50.936;6.854;2023-07-02T01:37:15;12.77;;;7.07;;
3613;SDS011;1821;50.936;6.854;2023-07-02T01:37:58;12.57;;;6.50;;
3613;SDS011;1821;50.936;6.854;2023-07-02T01:38:40;10.63;;;6.82;;
3613;SDS011;1821;50.936;6.854;2023-07-02T01:39:22;12.35;;;7.28;;
3613;SDS011;1821;50.936;6.854;2023-07-02T01:40:05;11.90;;;6.88;;
3613;SDS011;1821;50.936;6.854;2023-07-02T01:40:50;12.30;;;7.10;;
3613;SDS011;1821;50.936;6.854;2023-07-02T01:41:36;11.05;;;7.00;;
3613;SDS011;1821;50.936;6.854;2023-07-02T01:42:20;12.50;;;7.20;;
3613;SDS011;1821;50.936;6.854;2023-07-02T01:43:05;11.52;;;6.78;;
3613;SDS011;1821;50.936;6.854;2023-07-02T01:43:47;11.60;;;7.43;;
3613;SDS011;1821;50.936;6.854;2023-07-02T01:44:29;13.10;;;7.38;;
3613;SDS011;1821;50.936;6.854;2023-07-02T01:45:12;12.02;;;7.18;;
3613;SDS011;1821;50.936;6.854;2023-07-02T01:45:54;10.00;;;6.97;;
3613;SDS011;1821;50.936;6.854;2023-07-02T01:46:37;10.77;;;7.25;;
3613;SDS011;1821;50.936;6.854;2023-07-02T01:47:22;12.07;;;7.43;;
3613;SDS011;1821;50.936;6.854;2023-07-02T01:48:04;14.73;;;8.02;;
3613;SDS011;1821;50.936;6.854;2023-07-02T01:48:48;13.57;;;7.82;;
3613;SDS011;1821;50.936;6.854;2023-07-02T01:49:31;15.55;;;8.00;;
3613;SDS011;1821;50.936;6.854;2023-07-02T01:50:13;15.38;;;7.28;;
3613;SDS011;1821;50.936;6.854;2023-07-02T01:50:56;15.55;;;7.55;;
3613;SDS011;1821;50.936;6.854;2023-07-02T01:51:38;15.90;;;7.25;;
3613;SDS011;1821;50.936;6.854;2023-07-02T01:52:21;14.43;;;7.63;;
3613;SDS011;1821;50.936;6.854;2023-07-02T01:53:03;11.13;;;7.72;;
3613;SDS011;1821;50.936;6.854;2023-07-02T01:53:45;12.77;;;7.80;;
3613;SDS011;1821;50.936;6.854;2023-07-02T01:54:30;15.45;;;7.78;;
3613;SDS011;1821;50.936;6.854;2023-07-02T01:55:15;12.63;;;7.00;;
3613;SDS011;1821;50.936;6.854;2023-07-02T01:55:58;13.50;;;7.68;;
3613;SDS011;1821;50.936;6.854;2023-07-02T01:56:41;12.05;;;7.45;;
3613;SDS011;1821;50.936;6.854;2023-07-02T01:57:23;13.95;;;8.00;;
3613;SDS011;1821;50.936;6.854;2023-07-02T01:58:05;14.00;;;8.00;;
3613;SDS011;1821;50.936;6.854;2023-07-02T01:58:48;13.52;;;8.45;;
3613;SDS011;1821;50.936;6.854;2023-07-02T01:59:30;15.05;;;8.23;;
3613;SDS011;1821;50.936;6.854;2023-07-02T02:00:13;13.57;;;7.90;;
3613;SDS011;1821;50.936;6.854;2023-07-02T02:00:55;12.93;;;8.00;;
3613;SDS011;1821;50.936;6.854;2023-07-02T02:01:40;15.35;;;8.18;;
3613;SDS011;1821;50.936;6.854;2023-07-02T02:02:22;15.23;;;8.20;;
3613;SDS011;1821;50.936;6.854;2023-07-02T02:03:07;13.48;;;8.20;;
3613;SDS011;1821;50.936;6.854;2023-07-02T02:03:52;12.60;;;8.45;;
3613;SDS011;1821;50.936;6.854;2023-07-02T02:04:34;15.13;;;8.70;;
3613;SDS011;1821;50.936;6.854;2023-07-02T02:05:16;18.13;;;8.60;;
3613;SDS011;1821;50.936;6.854;2023-07-02T02:05:59;14.70;;;8.00;;
3613;SDS011;1821;50.936;6.854;2023-07-02T02:06:41;13.15;;;8.65;;
3613;SDS011;1821;50.936;6.854;2023-07-02T02:07:24;15.55;;;8.90;;
3613;SDS011;1821;50.936;6.854;2023-07-02T02:08:07;13.73;;;9.07;;
3613;SDS011;1821;50.936;6.854;2023-07-02T02:08:50;14.35;;;8.77;;
3613;SDS011;1821;50.936;6.854;2023-07-02T02:09:32;17.00;;;8.80;;
3613;SDS011;1821;50.936;6.854;2023-07-02T02:10:14;13.95;;;8.38;;
3613;SDS011;1821;50.936;6.854;2023-07-02T02:10:57;14.18;;;9.68;;
3613;SDS011;1821;50.936;6.854;2023-07-02T02:11:41;14.48;;;8.98;;
3613;SDS011;1821;50.936;6.854;2023-07-02T02:12:24;16.45;;;9.48;;
3613;SDS011;1821;50.936;6.854;2023-07-02T02:13:06;16.00;;;8.82;;
3613;SDS011;1821;50.936;6.854;2023-07-02T02:13:48;15.07;;;8.65;;
3613;SDS011;1821;50.936;6.854;2023-07-02T02:14:33;15.02;;;9.02;;
3613;SDS011;1821;50.936;6.854;2023-07-02T02:15:15;12.90;;;8.57;;
3613;SDS011;1821;50.936;6.854;2023-07-02T02:15:58;15.25;;;8.75;;
3613;SDS011;1821;50.936;6.854;2023-07-02T02:16:40;13.65;;;8.35;;
3613;SDS011;1821;50.936;6.854;2023-07-02T02:17:23;17.67;;;9.52;;
3613;SDS011;1821;50.936;6.854;2023-07-02T02:18:05;18.33;;;9.18;;
3613;SDS011;1821;50.936;6.854;2023-07-02T02:18:50;16.83;;;9.02;;
3613;SDS011;1821;50.936;6.854;2023-07-02T02:19:33;19.80;;;9.20;;
3613;SDS011;1821;50.936;6.854;2023-07-02T02:20:15;14.82;;;8.77;;
3613;SDS011;1821;50.936;6.854;2023-07-02T02:20:57;16.15;;;9.15;;
3613;SDS011;1821;50.936;6.854;2023-07-02T02:21:42;19.15;;;10.18;;
3613;SDS011;1821;50.936;6.854;2023-07-02T02:22:25;14.88;;;9.10;;
3613;SDS011;1821;50.936;6.854;2023-07-02T02:23:07;15.50;;;8.85;;
3613;SDS011;1821;50.936;6.854;2023-07-02T02:23:50;19.92;;;9.52;;
3613;SDS011;1821;50.936;6.854;2023-07-02T02:24:32;15.80;;;9.02;;
3613;SDS011;1821;50.936;6.854;2023-07-02T02:25:14;15.15;;;8.80;;
3613;SDS011;1821;50.936;6.854;2023-07-02T02:25:56;13.43;;;9.30;;
3613;SDS011;1821;50.936;6.854;2023-07-02T02:26:39;14.10;;;9.05;;
3613;SDS011;1821;50.936;6.854;2023-07-02T02:27:21;14.88;;;8.75;;
3613;SDS011;1821;50.936;6.854;2023-07-02T02:28:03;15.93;;;8.93;;
3613;SDS011;1821;50.936;6.854;2023-07-02T02:28:45;17.42;;;9.05;;
3613;SDS011;1821;50.936;6.854;2023-07-02T02:29:28;16.75;;;9.63;;
3613;SDS011;1821;50.936;6.854;2023-07-02T02:30:10;19.02;;;9.73;;
3613;SDS011;1821;50.936;6.854;2023-07-02T02:30:52;15.15;;;9.32;;
3613;SDS011;1821;50.936;6.854;2023-07-02T02:31:37;12.20;;;8.80;;
3613;SDS011;1821;50.936;6.854;2023-07-02T02:32:19;14.65;;;9.50;;
3613;SDS011;1821;50.936;6.854;2023-07-02T02:33:05;13.90;;;9.27;;
3613;SDS011;1821;50.936;6.854;2023-07-02T02:33:50;20.10;;;10.00;;
3613;SDS011;1821;50.936;6.854;2023-07-02T02:34:32;21.98;;;10.30;;
3613;SDS011;1821;50.936;6.854;2023-07-02T02:35:14;16.58;;;9.82;;
3613;SDS011;1821;50.936;6.854;2023-07-02T02:35:57;15.02;;;9.20;;
3613;SDS011;1821;50.936;6.854;2023-07-02T02:36:39;15.07;;;9.70;;
3613;SDS011;1821;50.936;6.854;2023-07-02T02:37:21;16.30;;;10.10;;
3613;SDS011;1821;50.936;6.854;2023-07-02T02:38:05;15.90;;;9.52;;
3613;SDS011;1821;50.936;6.854;2023-07-02T02:38:47;13.35;;;9.70;;
3613;SDS011;1821;50.936;6.854;2023-07-02T02:39:29;15.05;;;10.13;;
3613;SDS011;1821;50.936;6.854;2023-07-02T02:40:11;19.00;;;10.30;;
3613;SDS011;1821;50.936;6.854;2023-07-02T02:40:54;17.08;;;10.18;;
3613;SDS011;1821;50.936;6.854;2023-07-02T02:41:36;17.70;;;10.38;;
3613;SDS011;1821;50.936;6.854;2023-07-02T02:42:18;16.30;;;9.30;;
3613;SDS011;1821;50.936;6.854;2023-07-02T02:43:00;17.38;;;10.00;;
3613;SDS011;1821;50.936;6.854;2023-07-02T02:43:43;21.88;;;9.75;;
3613;SDS011;1821;50.936;6.854;2023-07-02T02:44:25;16.60;;;10.23;;
3613;SDS011;1821;50.936;6.854;2023-07-02T02:45:07;16.88;;;10.30;;
3613;SDS011;1821;50.936;6.854;2023-07-02T02:45:52;16.27;;;9.70;;
3613;SDS011;1821;50.936;6.854;2023-07-02T02:46:34;16.60;;;10.00;;
3613;SDS011;1821;50.936;6.854;2023-07-02T02:47:17;16.23;;;10.02;;
3613;SDS011;1821;50.936;6.854;2023-07-02T02:47:59;16.25;;;9.85;;
3613;SDS011;1821;50.936;6.854;2023-07-02T02:48:42;16.90;;;10.45;;
3613;SDS011;1821;50.936;6.854;2023-07-02T02:49:24;20.17;;;11.05;;
3613;SDS011;1821;50.936;6.854;2023-07-02T02:50:07;17.75;;;9.85;;
3613;SDS011;1821;50.936;6.854;2023-07-02T02:50:51;19.50;;;10.68;;
3613;SDS011;1821;50.936;6.854;2023-07-02T02:51:33;20.17;;;10.50;;
3613;SDS011;1821;50.936;6.854;2023-07-02T02:52:15;17.20;;;10.52;;
3613;SDS011;1821;50.936;6.854;2023-07-02T02:52:58;17.33;;;10.02;;
3613;SDS011;1821;50.936;6.854;2023-07-02T02:53:42;14.60;;;9.20;;
3613;SDS011;1821;50.936;6.854;2023-07-02T02:54:25;15.70;;;9.65;;
3613;SDS011;1821;50.936;6.854;2023-07-02T02:55:07;17.95;;;10.15;;
3613;SDS011;1821;50.936;6.854;2023-07-02T02:55:49;16.35;;;10.18;;
3613;SDS011;1821;50.936;6.854;2023-07-02T02:56:32;16.80;;;10.07;;
3613;SDS011;1821;50.936;6.854;2023-07-02T02:57:14;19.77;;;10.80;;
3613;SDS011;1821;50.936;6.854;2023-07-02T02:57:56;21.05;;;10.75;;
3613;SDS011;1821;50.936;6.854;2023-07-02T02:58:39;21.60;;;10.43;;
3613;SDS011;1821;50.936;6.854;2023-07-02T02:59:21;18.58;;;10.23;;
3613;SDS011;1821;50.936;6.854;2023-07-02T03:00:04;17.55;;;10.27;;
3613;SDS011;1821;50.936;6.854;2023-07-02T03:00:47;19.23;;;10.30;;
3613;SDS011;1821;50.936;6.854;2023-07-02T03:01:30;18.47;;;10.20;;
3613;SDS011;1821;50.936;6.854;2023-07-02T03:02:13;19.48;;;10.68;;
3613;SDS011;1821;50.936;6.854;2023-07-02T03:02:55;23.15;;;9.98;;
3613;SDS011;1821;50.936;6.854;2023-07-02T03:03:40;20.55;;;10.55;;
3613;SDS011;1821;50.936;6.854;2023-07-02T03:04:29;16.60;;;11.10;;
3613;SDS011;1821;50.936;6.854;2023-07-02T03:05:11;17.52;;;11.70;;
3613;SDS011;1821;50.936;6.854;2023-07-02T03:05:54;17.55;;;10.68;;
3613;SDS011;1821;50.936;6.854;2023-07-02T03:06:36;19.10;;;11.40;;
3613;SDS011;1821;50.936;6.854;2023-07-02T03:07:19;20.20;;;11.00;;
3613;SDS011;1821;50.936;6.854;2023-07-02T03:08:01;16.70;;;9.85;;
3613;SDS011;1821;50.936;6.854;2023-07-02T03:08:43;17.33;;;10.55;;
3613;SDS011;1821;50.936;6.854;2023-07-02T03:09:26;18.92;;;11.02;;
3613;SDS011;1821;50.936;6.854;2023-07-02T03:10:08;17.95;;;10.95;;
3613;SDS011;1821;50.936;6.854;2023-07-02T03:10:51;16.23;;;10.43;;
3613;SDS011;1821;50.936;6.854;2023-07-02T03:11:33;16.80;;;10.77;;
3613;SDS011;1821;50.936;6.854;2023-07-02T03:12:16;16.63;;;10.20;;
3613;SDS011;1821;50.936;6.854;2023-07-02T03:12:58;16.95;;;10.82;;
3613;SDS011;1821;50.936;6.854;2023-07-02T03:13:40;16.83;;;10.50;;
3613;SDS011;1821;50.936;6.854;2023-07-02T03:14:22;19.00;;;10.75;;
3613;SDS011;1821;50.936;6.854;2023-07-02T03:15:07;19.67;;;11.23;;
3613;SDS011;1821;50.936;6.854;2023-07-02T03:15:50;20.80;;;10.50;;
3613;SDS011;1821;50.936;6.854;2023-07-02T03:16:33;16.50;;;9.73;;
3613;SDS011;1821;50.936;6.854;2023-07-02T03:17:15;18.23;;;11.23;;
3613;SDS011;1821;50.936;6.854;2023-07-02T03:17:58;19.20;;;11.60;;
3613;SDS011;1821;50.936;6.854;2023-07-02T03:18:40;17.65;;;10.52;;
3613;SDS011;1821;50.936;6.854;2023-07-02T03:19:23;18.75;;;10.98;;
3613;SDS011;1821;50.936;6.854;2023-07-02T03:20:07;17.00;;;11.40;;
3613;SDS011;1821;50.936;6.854;2023-07-02T03:20:49;20.70;;;11.68;;
3613;SDS011;1821;50.936;6.854;2023-07-02T03:21:32;18.42;;;10.95;;
3613;SDS011;1821;50.936;6.854;2023-07-02T03:22:14;17.80;;;11.05;;
3613;SDS011;1821;50.936;6.854;2023-07-02T03:22:57;20.20;;;11.20;;
3613;SDS011;1821;50.936;6.854;2023-07-02T03:23:39;15.48;;;10.82;;
3613;SDS011;1821;50.936;6.854;2023-07-02T03:24:21;14.35;;;11.45;;
3613;SDS011;1821;50.936;6.854;2023-07-02T03:25:03;18.27;;;11.25;;
3613;SDS011;1821;50.936;6.854;2023-07-02T03:25:46;21.40;;;11.40;;
3613;SDS011;1821;50.936;6.854;2023-07-02T03:26:28;17.83;;;11.43;;
3613;SDS011;1821;50.936;6.854;2023-07-02T03:27:10;18.55;;;12.15;;
3613;SDS011;1821;50.936;6.854;2023-07-02T03:27:53;17.65;;;12.20;;
3613;SDS011;1821;50.936;6.854;2023-07-02T03:28:38;18.55;;;12.48;;
3613;SDS011;1821;50.936;6.854;2023-07-02T03:29:22;21.75;;;12.02;;
3613;SDS011;1821;50.936;6.854;2023-07-02T03:30:05;17.98;;;11.20;;
3613;SDS011;1821;50.936;6.854;2023-07-02T03:30:47;19.42;;;11.85;;
3613;SDS011;1821;50.936;6.854;2023-07-02T03:31:33;20.10;;;11.90;;
3613;SDS011;1821;50.936;6.854;2023-07-02T03:32:17;18.85;;;11.27;;
3613;SDS011;1821;50.936;6.854;2023-07-02T03:33:00;16.80;;;11.20;;
3613;SDS011;1821;50.936;6.854;2023-07-02T03:33:42;22.90;;;12.02;;
3613;SDS011;1821;50.936;6.854;2023-07-02T03:34:24;19.70;;;12.50;;
3613;SDS011;1821;50.936;6.854;2023-07-02T03:35:07;16.30;;;11.00;;
3613;SDS011;1821;50.936;6.854;2023-07-02T03:35:49;18.15;;;11.27;;
3613;SDS011;1821;50.936;6.854;2023-07-02T03:36:32;24.17;;;11.90;;
3613;SDS011;1821;50.936;6.854;2023-07-02T03:37:14;20.48;;;11.57;;
3613;SDS011;1821;50.936;6.854;2023-07-02T03:37:56;20.60;;;12.50;;
3613;SDS011;1821;50.936;6.854;2023-07-02T03:38:38;18.85;;;11.15;;
3613;SDS011;1821;50.936;6.854;2023-07-02T03:39:23;20.17;;;11.93;;
3613;SDS011;1821;50.936;6.854;2023-07-02T03:40:06;19.80;;;12.43;;
3613;SDS011;1821;50.936;6.854;2023-07-02T03:40:49;18.58;;;12.25;;
3613;SDS011;1821;50.936;6.854;2023-07-02T03:41:31;19.13;;;12.70;;
3613;SDS011;1821;50.936;6.854;2023-07-02T03:42:15;17.45;;;12.00;;
3613;SDS011;1821;50.936;6.854;2023-07-02T03:42:58;19.30;;;12.70;;
3613;SDS011;1821;50.936;6.854;2023-07-02T03:43:42;19.40;;;11.77;;
3613;SDS011;1821;50.936;6.854;2023-07-02T03:44:25;21.67;;;12.55;;
3613;SDS011;1821;50.936;6.854;2023-07-02T03:45:07;18.65;;;11.82;;
3613;SDS011;1821;50.936;6.854;2023-07-02T03:45:49;18.95;;;12.40;;
3613;SDS011;1821;50.936;6.854;2023-07-02T03:46:32;19.33;;;11.85;;
3613;SDS011;1821;50.936;6.854;2023-07-02T03:47:14;21.75;;;12.52;;
3613;SDS011;1821;50.936;6.854;2023-07-02T03:47:57;21.75;;;12.68;;
3613;SDS011;1821;50.936;6.854;2023-07-02T03:48:40;21.63;;;12.23;;
3613;SDS011;1821;50.936;6.854;2023-07-02T03:49:22;22.25;;;12.05;;
3613;SDS011;1821;50.936;6.854;2023-07-02T03:50:04;24.35;;;13.77;;
3613;SDS011;1821;50.936;6.854;2023-07-02T03:50:47;23.40;;;12.93;;
3613;SDS011;1821;50.936;6.854;2023-07-02T03:51:30;17.20;;;11.90;;
3613;SDS011;1821;50.936;6.854;2023-07-02T03:52:12;19.50;;;12.90;;
3613;SDS011;1821;50.936;6.854;2023-07-02T03:52:55;18.40;;;11.98;;
3613;SDS011;1821;50.936;6.854;2023-07-02T03:53:37;21.42;;;11.90;;
3613;SDS011;1821;50.936;6.854;2023-07-02T03:54:19;21.45;;;12.60;;
3613;SDS011;1821;50.936;6.854;2023-07-02T03:55:01;20.17;;;13.40;;
3613;SDS011;1821;50.936;6.854;2023-07-02T03:55:44;22.23;;;12.88;;
3613;SDS011;1821;50.936;6.854;2023-07-02T03:56:27;22.25;;;12.82;;
3613;SDS011;1821;50.936;6.854;2023-07-02T03:57:09;21.53;;;12.10;;
3613;SDS011;1821;50.936;6.854;2023-07-02T03:57:51;20.45;;;13.60;;
3613;SDS011;1821;50.936;6.854;2023-07-02T03:58:33;28.52;;;13.73;;
3613;SDS011;1821;50.936;6.854;2023-07-02T03:59:16;26.30;;;13.82;;
3613;SDS011;1821;50.936;6.854;2023-07-02T03:59:58;26.00;;;13.88;;
3613;SDS011;1821;50.936;6.854;2023-07-02T04:00:41;24.80;;;13.45;;
3613;SDS011;1821;50.936;6.854;2023-07-02T04:01:27;27.08;;;14.27;;
3613;SDS011;1821;50.936;6.854;2023-07-02T04:02:10;20.15;;;12.30;;
3613;SDS011;1821;50.936;6.854;2023-07-02T04:02:52;23.35;;;13.00;;
3613;SDS011;1821;50.936;6.854;2023-07-02T04:03:34;23.45;;;12.30;;
3613;SDS011;1821;50.936;6.854;2023-07-02T04:04:19;21.50;;;13.60;;
3613;SDS011;1821;50.936;6.854;2023-07-02T04:05:02;23.40;;;12.88;;
3613;SDS011;1821;50.936;6.854;2023-07-02T04:05:44;21.58;;;12.55;;
3613;SDS011;1821;50.936;6.854;2023-07-02T04:06:26;23.40;;;13.80;;
3613;SDS011;1821;50.936;6.854;2023-07-02T04:07:09;27.77;;;13.90;;
3613;SDS011;1821;50.936;6.854;2023-07-02T04:07:52;22.63;;;12.85;;
3613;SDS011;1821;50.936;6.854;2023-07-02T04:08:34;26.50;;;13.25;;
3613;SDS011;1821;50.936;6.854;2023-07-02T04:09:16;21.05;;;12.88;;
3613;SDS011;1821;50.936;6.854;2023-07-02T04:10:00;21.50;;;12.90;;
3613;SDS011;1821;50.936;6.854;2023-07-02T04:10:42;21.10;;;12.77;;
3613;SDS011;1821;50.936;6.854;2023-07-02T04:11:24;23.13;;;12.95;;
3613;SDS011;1821;50.936;6.854;2023-07-02T04:12:07;25.63;;;14.02;;
3613;SDS011;1821;50.936;6.854;2023-07-02T04:12:49;21.27;;;14.20;;
3613;SDS011;1821;50.936;6.854;2023-07-02T04:13:31;20.90;;;13.30;;
3613;SDS011;1821;50.936;6.854;2023-07-02T04:14:14;24.25;;;13.40;;
3613;SDS011;1821;50.936;6.854;2023-07-02T04:14:58;19.30;;;12.88;;
3613;SDS011;1821;50.936;6.854;2023-07-02T04:15:41;19.98;;;12.88;;
3613;SDS011;1821;50.936;6.854;2023-07-02T04:16:23;23.35;;;14.20;;
3613;SDS011;1821;50.936;6.854;2023-07-02T04:17:05;22.95;;;14.30;;
3613;SDS011;1821;50.936;6.854;2023-07-02T04:17:48;21.38;;;13.68;;
3613;SDS011;1821;50.936;6.854;2023-07-02T04:18:30;22.15;;;13.60;;
3613;SDS011;1821;50.936;6.854;2023-07-02T04:19:15;24.10;;;14.20;;
3613;SDS011;1821;50.936;6.854;2023-07-02T04:19:59;24.02;;;13.80;;
3613;SDS011;1821;50.936;6.854;2023-07-02T04:20:41;24.45;;;13.52;;
3613;SDS011;1821;50.936;6.854;2023-07-02T04:21:24;26.33;;;13.32;;
3613;SDS011;1821;50.936;6.854;2023-07-02T04:22:06;23.35;;;13.10;;
3613;SDS011;1821;50.936;6.854;2023-07-02T04:22:48;20.23;;;12.98;;
3613;SDS011;1821;50.936;6.854;2023-07-02T04:23:30;28.05;;;14.80;;
3613;SDS011;1821;50.936;6.854;2023-07-02T04:24:13;25.65;;;14.73;;
3613;SDS011;1821;50.936;6.854;2023-07-02T04:24:56;25.02;;;13.95;;